sensor_id;sensor_type;location;lat;lon;timestamp;temperature;humidity
16663;DHT22;8445;51.270;9.434;2022-09-09T00:09:59;12.20;84.10
16663;DHT22;8445;51.270;9.434;2022-09-09T00:12:51;12.20;83.70
16663;DHT22;8445;51.270;9.434;2022-09-09T00:19:12;12.20;84.20
16663;DHT22;8445;51.270;9.434;2022-09-09T00:21:37;12.10;84.70
16663;DHT22;8445;51.270;9.434;2022-09-09T00:27:08;12.10;84.30
16663;DHT22;8445;51.270;9.434;2022-09-09T00:29:45;12.10;84.10
16663;DHT22;8445;51.270;9.434;2022-09-09T00:32:21;12.10;84.30
16663;DHT22;8445;51.270;9.434;2022-09-09T00:34:52;12.10;84.30
16663;DHT22;8445;51.270;9.434;2022-09-09T00:37:22;12.10;84.50
16663;DHT22;8445;51.270;9.434;2022-09-09T00:39:57;12.10;84.50
16663;DHT22;8445;51.270;9.434;2022-09-09T00:42:43;12.00;84.40
16663;DHT22;8445;51.270;9.434;2022-09-09T00:48:10;12.00;84.60
16663;DHT22;8445;51.270;9.434;2022-09-09T00:56:27;12.00;84.90
16663;DHT22;8445;51.270;9.434;2022-09-09T01:01:36;12.10;84.90
16663;DHT22;8445;51.270;9.434;2022-09-09T01:04:16;12.00;84.80
16663;DHT22;8445;51.270;9.434;2022-09-09T01:07:16;12.10;85.20
16663;DHT22;8445;51.270;9.434;2022-09-09T01:12:49;12.10;85.20
16663;DHT22;8445;51.270;9.434;2022-09-09T01:15:24;12.20;85.70
16663;DHT22;8445;51.270;9.434;2022-09-09T01:26:41;12.30;85.60
16663;DHT22;8445;51.270;9.434;2022-09-09T01:29:21;12.30;85.60
16663;DHT22;8445;51.270;9.434;2022-09-09T01:35:03;12.30;85.60
16663;DHT22;8445;51.270;9.434;2022-09-09T01:37:30;12.30;85.50
16663;DHT22;8445;51.270;9.434;2022-09-09T01:39:56;12.30;85.60
16663;DHT22;8445;51.270;9.434;2022-09-09T01:42:22;12.40;85.90
16663;DHT22;8445;51.270;9.434;2022-09-09T01:44:48;12.40;86.00
16663;DHT22;8445;51.270;9.434;2022-09-09T01:47:15;12.40;86.10
16663;DHT22;8445;51.270;9.434;2022-09-09T01:50:20;12.50;86.20
16663;DHT22;8445;51.270;9.434;2022-09-09T01:52:57;12.50;86.10
16663;DHT22;8445;51.270;9.434;2022-09-09T01:55:38;12.50;86.20
16663;DHT22;8445;51.270;9.434;2022-09-09T01:58:27;12.60;86.30
16663;DHT22;8445;51.270;9.434;2022-09-09T02:03:52;12.60;86.30
16663;DHT22;8445;51.270;9.434;2022-09-09T02:06:31;12.70;86.40
16663;DHT22;8445;51.270;9.434;2022-09-09T02:09:12;12.70;86.30
16663;DHT22;8445;51.270;9.434;2022-09-09T02:11:41;12.60;86.10
16663;DHT22;8445;51.270;9.434;2022-09-09T02:14:36;12.60;86.10
16663;DHT22;8445;51.270;9.434;2022-09-09T02:17:13;12.60;86.10
16663;DHT22;8445;51.270;9.434;2022-09-09T02:20:12;12.50;86.10
16663;DHT22;8445;51.270;9.434;2022-09-09T02:22:47;12.50;86.30
16663;DHT22;8445;51.270;9.434;2022-09-09T02:25:20;12.50;86.30
16663;DHT22;8445;51.270;9.434;2022-09-09T02:27:51;12.40;86.40
16663;DHT22;8445;51.270;9.434;2022-09-09T02:30:18;12.40;86.50
16663;DHT22;8445;51.270;9.434;2022-09-09T02:32:54;12.50;86.80
16663;DHT22;8445;51.270;9.434;2022-09-09T02:35:35;12.50;86.90
16663;DHT22;8445;51.270;9.434;2022-09-09T02:38:07;12.60;87.10
16663;DHT22;8445;51.270;9.434;2022-09-09T02:40:40;12.60;87.30
16663;DHT22;8445;51.270;9.434;2022-09-09T02:43:06;12.70;87.30
16663;DHT22;8445;51.270;9.434;2022-09-09T02:45:51;12.80;87.50
16663;DHT22;8445;51.270;9.434;2022-09-09T02:54:28;12.90;87.20
16663;DHT22;8445;51.270;9.434;2022-09-09T02:57:16;12.90;87.20
16663;DHT22;8445;51.270;9.434;2022-09-09T02:59:48;13.00;87.40
16663;DHT22;8445;51.270;9.434;2022-09-09T03:02:18;13.00;87.20
16663;DHT22;8445;51.270;9.434;2022-09-09T03:04:47;13.00;87.20
16663;DHT22;8445;51.270;9.434;2022-09-09T03:07:21;12.90;87.20
16663;DHT22;8445;51.270;9.434;2022-09-09T03:09:51;12.90;87.10
16663;DHT22;8445;51.270;9.434;2022-09-09T03:12:19;12.80;86.90
16663;DHT22;8445;51.270;9.434;2022-09-09T03:14:46;12.80;87.00
16663;DHT22;8445;51.270;9.434;2022-09-09T03:17:12;12.80;87.10
16663;DHT22;8445;51.270;9.434;2022-09-09T03:19:45;12.70;87.20
16663;DHT22;8445;51.270;9.434;2022-09-09T03:22:12;12.70;87.30
16663;DHT22;8445;51.270;9.434;2022-09-09T03:24:40;12.70;87.40
16663;DHT22;8445;51.270;9.434;2022-09-09T03:27:07;12.70;87.40
16663;DHT22;8445;51.270;9.434;2022-09-09T03:29:37;12.70;87.60
16663;DHT22;8445;51.270;9.434;2022-09-09T03:32:06;12.70;87.60
16663;DHT22;8445;51.270;9.434;2022-09-09T03:34:35;12.70;87.70
16663;DHT22;8445;51.270;9.434;2022-09-09T03:37:05;12.70;87.90
16663;DHT22;8445;51.270;9.434;2022-09-09T03:39:31;12.80;88.20
16663;DHT22;8445;51.270;9.434;2022-09-09T03:41:58;12.80;88.30
16663;DHT22;8445;51.270;9.434;2022-09-09T03:44:24;12.90;88.50
16663;DHT22;8445;51.270;9.434;2022-09-09T03:46:50;13.00;88.50
16663;DHT22;8445;51.270;9.434;2022-09-09T03:49:18;13.00;88.40
16663;DHT22;8445;51.270;9.434;2022-09-09T03:51:46;13.10;88.40
16663;DHT22;8445;51.270;9.434;2022-09-09T03:54:13;13.10;88.30
16663;DHT22;8445;51.270;9.434;2022-09-09T03:56:39;13.10;88.40
16663;DHT22;8445;51.270;9.434;2022-09-09T03:59:09;13.20;88.50
16663;DHT22;8445;51.270;9.434;2022-09-09T04:01:35;13.20;88.40
16663;DHT22;8445;51.270;9.434;2022-09-09T04:04:01;13.20;88.40
16663;DHT22;8445;51.270;9.434;2022-09-09T04:06:28;13.20;88.40
16663;DHT22;8445;51.270;9.434;2022-09-09T04:08:54;13.20;88.30
16663;DHT22;8445;51.270;9.434;2022-09-09T04:11:23;13.20;88.30
16663;DHT22;8445;51.270;9.434;2022-09-09T04:13:52;13.20;88.30
16663;DHT22;8445;51.270;9.434;2022-09-09T04:16:18;13.20;88.30
16663;DHT22;8445;51.270;9.434;2022-09-09T04:18:44;13.10;88.30
16663;DHT22;8445;51.270;9.434;2022-09-09T04:21:13;13.10;88.40
16663;DHT22;8445;51.270;9.434;2022-09-09T04:23:39;13.10;88.40
16663;DHT22;8445;51.270;9.434;2022-09-09T04:26:06;13.10;88.40
16663;DHT22;8445;51.270;9.434;2022-09-09T04:28:36;13.10;88.40
16663;DHT22;8445;51.270;9.434;2022-09-09T04:31:06;13.00;88.30
16663;DHT22;8445;51.270;9.434;2022-09-09T04:33:35;13.00;88.40
16663;DHT22;8445;51.270;9.434;2022-09-09T04:36:02;13.00;88.50
16663;DHT22;8445;51.270;9.434;2022-09-09T04:38:30;13.00;88.50
16663;DHT22;8445;51.270;9.434;2022-09-09T04:40:55;13.00;88.60
16663;DHT22;8445;51.270;9.434;2022-09-09T04:43:22;12.90;88.50
16663;DHT22;8445;51.270;9.434;2022-09-09T04:45:51;12.90;88.60
16663;DHT22;8445;51.270;9.434;2022-09-09T04:48:20;12.90;88.60
16663;DHT22;8445;51.270;9.434;2022-09-09T04:50:58;12.80;88.60
16663;DHT22;8445;51.270;9.434;2022-09-09T04:53:27;12.80;88.80
16663;DHT22;8445;51.270;9.434;2022-09-09T04:58:31;12.90;88.90
16663;DHT22;8445;51.270;9.434;2022-09-09T05:01:23;12.80;88.80
16663;DHT22;8445;51.270;9.434;2022-09-09T05:03:51;12.90;89.30
16663;DHT22;8445;51.270;9.434;2022-09-09T05:06:21;12.90;89.00
16663;DHT22;8445;51.270;9.434;2022-09-09T05:08:52;12.90;89.10
16663;DHT22;8445;51.270;9.434;2022-09-09T05:11:25;13.00;89.30
16663;DHT22;8445;51.270;9.434;2022-09-09T05:13:56;13.10;89.40
16663;DHT22;8445;51.270;9.434;2022-09-09T05:16:23;13.20;89.40
16663;DHT22;8445;51.270;9.434;2022-09-09T05:18:49;13.30;89.50
16663;DHT22;8445;51.270;9.434;2022-09-09T05:21:18;13.40;89.60
16663;DHT22;8445;51.270;9.434;2022-09-09T05:23:48;13.60;89.60
16663;DHT22;8445;51.270;9.434;2022-09-09T05:26:19;13.70;89.60
16663;DHT22;8445;51.270;9.434;2022-09-09T05:28:48;13.70;89.50
16663;DHT22;8445;51.270;9.434;2022-09-09T05:31:16;13.80;89.40
16663;DHT22;8445;51.270;9.434;2022-09-09T05:33:47;13.80;89.30
16663;DHT22;8445;51.270;9.434;2022-09-09T05:36:17;13.80;89.20
16663;DHT22;8445;51.270;9.434;2022-09-09T05:38:47;13.90;89.20
16663;DHT22;8445;51.270;9.434;2022-09-09T05:41:14;13.90;89.20
16663;DHT22;8445;51.270;9.434;2022-09-09T05:43:44;14.00;89.30
16663;DHT22;8445;51.270;9.434;2022-09-09T05:46:19;14.00;89.20
16663;DHT22;8445;51.270;9.434;2022-09-09T05:48:49;14.00;89.30
16663;DHT22;8445;51.270;9.434;2022-09-09T05:51:24;14.10;89.40
16663;DHT22;8445;51.270;9.434;2022-09-09T05:53:56;14.10;89.50
16663;DHT22;8445;51.270;9.434;2022-09-09T05:56:29;14.20;89.60
16663;DHT22;8445;51.270;9.434;2022-09-09T05:58:56;14.40;89.80
16663;DHT22;8445;51.270;9.434;2022-09-09T06:01:32;14.70;90.00
16663;DHT22;8445;51.270;9.434;2022-09-09T06:04:01;15.10;90.10
16663;DHT22;8445;51.270;9.434;2022-09-09T06:06:34;15.70;90.20
16663;DHT22;8445;51.270;9.434;2022-09-09T06:09:12;16.20;90.10
16663;DHT22;8445;51.270;9.434;2022-09-09T06:11:41;16.60;89.50
16663;DHT22;8445;51.270;9.434;2022-09-09T06:14:08;16.80;89.00
16663;DHT22;8445;51.270;9.434;2022-09-09T06:16:35;16.90;88.70
16663;DHT22;8445;51.270;9.434;2022-09-09T06:19:05;17.00;88.60
16663;DHT22;8445;51.270;9.434;2022-09-09T06:21:36;17.20;88.40
16663;DHT22;8445;51.270;9.434;2022-09-09T06:24:04;17.30;88.30
16663;DHT22;8445;51.270;9.434;2022-09-09T06:26:33;17.40;88.00
16663;DHT22;8445;51.270;9.434;2022-09-09T06:29:03;17.50;88.00
16663;DHT22;8445;51.270;9.434;2022-09-09T06:31:31;17.70;88.20
16663;DHT22;8445;51.270;9.434;2022-09-09T06:34:06;18.10;88.30
16663;DHT22;8445;51.270;9.434;2022-09-09T06:36:38;18.40;88.00
16663;DHT22;8445;51.270;9.434;2022-09-09T06:39:06;18.60;87.70
16663;DHT22;8445;51.270;9.434;2022-09-09T06:41:34;18.70;87.20
16663;DHT22;8445;51.270;9.434;2022-09-09T06:44:02;18.70;87.80
16663;DHT22;8445;51.270;9.434;2022-09-09T06:46:39;18.70;86.50
16663;DHT22;8445;51.270;9.434;2022-09-09T06:49:08;18.50;86.00
16663;DHT22;8445;51.270;9.434;2022-09-09T06:51:36;18.20;85.80
16663;DHT22;8445;51.270;9.434;2022-09-09T06:54:11;18.00;85.90
16663;DHT22;8445;51.270;9.434;2022-09-09T06:56:40;17.80;86.20
16663;DHT22;8445;51.270;9.434;2022-09-09T06:59:12;17.60;86.30
16663;DHT22;8445;51.270;9.434;2022-09-09T07:01:41;17.40;86.30
16663;DHT22;8445;51.270;9.434;2022-09-09T07:04:13;17.20;86.60
16663;DHT22;8445;51.270;9.434;2022-09-09T07:06:45;17.00;86.60
16663;DHT22;8445;51.270;9.434;2022-09-09T07:09:22;16.90;86.70
16663;DHT22;8445;51.270;9.434;2022-09-09T07:11:51;16.80;86.90
16663;DHT22;8445;51.270;9.434;2022-09-09T07:14:23;16.70;87.20
16663;DHT22;8445;51.270;9.434;2022-09-09T07:16:56;16.70;87.30
16663;DHT22;8445;51.270;9.434;2022-09-09T07:19:35;16.60;87.20
16663;DHT22;8445;51.270;9.434;2022-09-09T07:22:04;16.50;87.40
16663;DHT22;8445;51.270;9.434;2022-09-09T07:24:32;16.40;87.50
16663;DHT22;8445;51.270;9.434;2022-09-09T07:26:58;16.30;87.40
16663;DHT22;8445;51.270;9.434;2022-09-09T07:29:25;16.40;87.80
16663;DHT22;8445;51.270;9.434;2022-09-09T07:31:51;16.60;88.40
16663;DHT22;8445;51.270;9.434;2022-09-09T07:34:24;16.90;88.70
16663;DHT22;8445;51.270;9.434;2022-09-09T07:36:52;17.40;89.40
16663;DHT22;8445;51.270;9.434;2022-09-09T07:39:20;17.90;89.20
16663;DHT22;8445;51.270;9.434;2022-09-09T07:41:53;18.20;88.30
16663;DHT22;8445;51.270;9.434;2022-09-09T07:44:24;18.20;87.80
16663;DHT22;8445;51.270;9.434;2022-09-09T07:46:58;18.20;87.50
16663;DHT22;8445;51.270;9.434;2022-09-09T07:49:30;18.40;87.60
16663;DHT22;8445;51.270;9.434;2022-09-09T07:51:57;18.40;87.30
16663;DHT22;8445;51.270;9.434;2022-09-09T07:54:24;18.50;87.30
16663;DHT22;8445;51.270;9.434;2022-09-09T07:56:51;18.70;87.50
16663;DHT22;8445;51.270;9.434;2022-09-09T07:59:19;18.70;87.00
16663;DHT22;8445;51.270;9.434;2022-09-09T08:01:50;18.60;86.60
16663;DHT22;8445;51.270;9.434;2022-09-09T08:04:24;18.60;86.70
16663;DHT22;8445;51.270;9.434;2022-09-09T08:06:57;18.70;86.90
16663;DHT22;8445;51.270;9.434;2022-09-09T08:09:27;19.00;87.10
16663;DHT22;8445;51.270;9.434;2022-09-09T08:11:59;19.20;87.20
16663;DHT22;8445;51.270;9.434;2022-09-09T08:14:26;19.40;87.00
16663;DHT22;8445;51.270;9.434;2022-09-09T08:16:54;19.60;86.70
16663;DHT22;8445;51.270;9.434;2022-09-09T08:19:23;19.60;86.30
16663;DHT22;8445;51.270;9.434;2022-09-09T08:21:49;19.50;85.80
16663;DHT22;8445;51.270;9.434;2022-09-09T08:24:16;19.30;85.70
16663;DHT22;8445;51.270;9.434;2022-09-09T08:26:48;19.20;85.70
16663;DHT22;8445;51.270;9.434;2022-09-09T08:29:17;19.00;85.70
16663;DHT22;8445;51.270;9.434;2022-09-09T08:31:53;19.00;86.80
16663;DHT22;8445;51.270;9.434;2022-09-09T08:34:24;18.90;85.90
16663;DHT22;8445;51.270;9.434;2022-09-09T08:36:53;18.90;86.10
16663;DHT22;8445;51.270;9.434;2022-09-09T08:39:24;18.90;86.20
16663;DHT22;8445;51.270;9.434;2022-09-09T08:47:34;19.70;86.80
16663;DHT22;8445;51.270;9.434;2022-09-09T08:50:16;20.10;86.70
16663;DHT22;8445;51.270;9.434;2022-09-09T08:55:48;21.00;86.60
16663;DHT22;8445;51.270;9.434;2022-09-09T08:58:51;21.40;85.90
16663;DHT22;8445;51.270;9.434;2022-09-09T09:02:41;21.50;85.00
16663;DHT22;8445;51.270;9.434;2022-09-09T09:05:23;21.80;85.10
16663;DHT22;8445;51.270;9.434;2022-09-09T09:08:05;21.90;84.00
16663;DHT22;8445;51.270;9.434;2022-09-09T09:10:47;21.60;83.30
16663;DHT22;8445;51.270;9.434;2022-09-09T09:13:47;21.30;83.20
16663;DHT22;8445;51.270;9.434;2022-09-09T09:16:34;21.10;83.40
16663;DHT22;8445;51.270;9.434;2022-09-09T09:19:26;20.90;83.60
16663;DHT22;8445;51.270;9.434;2022-09-09T09:24:51;20.80;84.00
16663;DHT22;8445;51.270;9.434;2022-09-09T09:30:49;21.60;85.10
16663;DHT22;8445;51.270;9.434;2022-09-09T09:33:52;22.20;85.20
16663;DHT22;8445;51.270;9.434;2022-09-09T09:36:39;22.60;83.60
16663;DHT22;8445;51.270;9.434;2022-09-09T09:39:27;23.10;83.50
16663;DHT22;8445;51.270;9.434;2022-09-09T09:42:13;23.30;82.50
16663;DHT22;8445;51.270;9.434;2022-09-09T09:44:44;23.40;82.50
16663;DHT22;8445;51.270;9.434;2022-09-09T09:47:21;23.70;82.90
16663;DHT22;8445;51.270;9.434;2022-09-09T09:49:58;24.00;82.20
16663;DHT22;8445;51.270;9.434;2022-09-09T09:52:28;24.10;81.90
16663;DHT22;8445;51.270;9.434;2022-09-09T09:54:58;24.10;81.40
16663;DHT22;8445;51.270;9.434;2022-09-09T09:57:31;24.20;81.40
16663;DHT22;8445;51.270;9.434;2022-09-09T10:00:14;24.30;81.00
16663;DHT22;8445;51.270;9.434;2022-09-09T10:02:49;24.40;80.20
16663;DHT22;8445;51.270;9.434;2022-09-09T10:05:26;24.40;80.20
16663;DHT22;8445;51.270;9.434;2022-09-09T10:08:02;24.40;80.00
16663;DHT22;8445;51.270;9.434;2022-09-09T10:30:00;24.90;78.20
16663;DHT22;8445;51.270;9.434;2022-09-09T10:32:41;24.70;77.60
16663;DHT22;8445;51.270;9.434;2022-09-09T10:52:26;26.30;77.10
16663;DHT22;8445;51.270;9.434;2022-09-09T11:03:20;26.50;74.30
16663;DHT22;8445;51.270;9.434;2022-09-09T11:05:55;26.10;74.00
16663;DHT22;8445;51.270;9.434;2022-09-09T11:08:32;25.70;74.20
16663;DHT22;8445;51.270;9.434;2022-09-09T11:11:13;25.30;74.40
16663;DHT22;8445;51.270;9.434;2022-09-09T11:14:03;24.90;74.00
16663;DHT22;8445;51.270;9.434;2022-09-09T11:17:03;24.60;74.20
16663;DHT22;8445;51.270;9.434;2022-09-09T11:19:43;24.20;74.80
16663;DHT22;8445;51.270;9.434;2022-09-09T11:22:26;24.00;74.50
16663;DHT22;8445;51.270;9.434;2022-09-09T11:25:42;23.80;74.50
16663;DHT22;8445;51.270;9.434;2022-09-09T11:33:41;23.60;75.20
16663;DHT22;8445;51.270;9.434;2022-09-09T11:36:43;23.50;74.60
16663;DHT22;8445;51.270;9.434;2022-09-09T11:42:20;23.60;74.90
16663;DHT22;8445;51.270;9.434;2022-09-09T11:44:52;23.60;74.20
16663;DHT22;8445;51.270;9.434;2022-09-09T11:47:28;24.00;75.80
16663;DHT22;8445;51.270;9.434;2022-09-09T11:50:08;24.20;74.00
16663;DHT22;8445;51.270;9.434;2022-09-09T11:52:47;24.30;73.40
16663;DHT22;8445;51.270;9.434;2022-09-09T11:55:32;24.40;73.00
16663;DHT22;8445;51.270;9.434;2022-09-09T11:58:03;24.40;72.90
16663;DHT22;8445;51.270;9.434;2022-09-09T12:00:47;24.40;72.70
16663;DHT22;8445;51.270;9.434;2022-09-09T12:06:25;23.70;72.10
16663;DHT22;8445;51.270;9.434;2022-09-09T12:09:07;23.40;72.50
16663;DHT22;8445;51.270;9.434;2022-09-09T12:11:39;23.00;72.20
16663;DHT22;8445;51.270;9.434;2022-09-09T12:14:38;22.60;72.50
16663;DHT22;8445;51.270;9.434;2022-09-09T12:17:31;22.30;72.40
16663;DHT22;8445;51.270;9.434;2022-09-09T12:20:35;22.10;73.00
16663;DHT22;8445;51.270;9.434;2022-09-09T12:28:46;22.00;73.10
16663;DHT22;8445;51.270;9.434;2022-09-09T12:32:16;21.90;72.90
16663;DHT22;8445;51.270;9.434;2022-09-09T12:35:20;21.80;72.90
16663;DHT22;8445;51.270;9.434;2022-09-09T12:38:03;21.70;72.90
16663;DHT22;8445;51.270;9.434;2022-09-09T12:40:39;21.70;73.10
16663;DHT22;8445;51.270;9.434;2022-09-09T12:43:30;21.70;73.10
16663;DHT22;8445;51.270;9.434;2022-09-09T12:46:10;21.70;73.00
16663;DHT22;8445;51.270;9.434;2022-09-09T12:49:52;21.80;72.60
16663;DHT22;8445;51.270;9.434;2022-09-09T12:52:31;21.80;72.60
16663;DHT22;8445;51.270;9.434;2022-09-09T12:55:04;22.10;72.90
16663;DHT22;8445;51.270;9.434;2022-09-09T12:57:39;22.90;73.50
16663;DHT22;8445;51.270;9.434;2022-09-09T13:00:22;23.80;72.80
16663;DHT22;8445;51.270;9.434;2022-09-09T13:02:55;24.50;71.80
16663;DHT22;8445;51.270;9.434;2022-09-09T13:05:45;25.10;71.10
16663;DHT22;8445;51.270;9.434;2022-09-09T13:08:13;25.50;70.80
16663;DHT22;8445;51.270;9.434;2022-09-09T13:10:56;25.60;69.80
16663;DHT22;8445;51.270;9.434;2022-09-09T13:13:37;25.30;68.60
16663;DHT22;8445;51.270;9.434;2022-09-09T13:16:06;24.80;68.40
16663;DHT22;8445;51.270;9.434;2022-09-09T13:18:46;24.40;68.80
16663;DHT22;8445;51.270;9.434;2022-09-09T13:21:12;23.90;69.10
16663;DHT22;8445;51.270;9.434;2022-09-09T13:23:39;23.60;69.30
16663;DHT22;8445;51.270;9.434;2022-09-09T13:26:23;23.30;69.50
16663;DHT22;8445;51.270;9.434;2022-09-09T13:28:52;23.10;69.30
16663;DHT22;8445;51.270;9.434;2022-09-09T13:31:32;22.90;69.70
16663;DHT22;8445;51.270;9.434;2022-09-09T13:34:11;22.60;69.80
16663;DHT22;8445;51.270;9.434;2022-09-09T13:36:59;22.50;69.80
16663;DHT22;8445;51.270;9.434;2022-09-09T13:39:33;22.40;70.30
16663;DHT22;8445;51.270;9.434;2022-09-09T13:42:24;22.30;70.30
16663;DHT22;8445;51.270;9.434;2022-09-09T13:44:52;22.30;70.20
16663;DHT22;8445;51.270;9.434;2022-09-09T13:47:21;22.30;70.60
16663;DHT22;8445;51.270;9.434;2022-09-09T13:49:53;22.40;70.60
16663;DHT22;8445;51.270;9.434;2022-09-09T13:52:19;22.40;70.30
16663;DHT22;8445;51.270;9.434;2022-09-09T13:54:52;22.40;70.20
16663;DHT22;8445;51.270;9.434;2022-09-09T13:57:23;22.30;69.90
16663;DHT22;8445;51.270;9.434;2022-09-09T13:59:52;22.30;70.00
16663;DHT22;8445;51.270;9.434;2022-09-09T14:02:20;22.30;70.00
16663;DHT22;8445;51.270;9.434;2022-09-09T14:04:50;22.20;70.00
16663;DHT22;8445;51.270;9.434;2022-09-09T14:07:22;22.10;69.90
16663;DHT22;8445;51.270;9.434;2022-09-09T14:09:49;22.20;70.00
16663;DHT22;8445;51.270;9.434;2022-09-09T14:12:24;22.10;69.90
16663;DHT22;8445;51.270;9.434;2022-09-09T14:14:50;22.20;69.90
16663;DHT22;8445;51.270;9.434;2022-09-09T14:17:16;22.30;70.00
16663;DHT22;8445;51.270;9.434;2022-09-09T14:19:42;22.50;70.00
16663;DHT22;8445;51.270;9.434;2022-09-09T14:22:08;22.70;70.10
16663;DHT22;8445;51.270;9.434;2022-09-09T14:24:34;23.00;70.20
16663;DHT22;8445;51.270;9.434;2022-09-09T14:27:00;23.50;70.00
16663;DHT22;8445;51.270;9.434;2022-09-09T14:29:26;23.90;69.80
16663;DHT22;8445;51.270;9.434;2022-09-09T14:31:52;24.20;69.10
16663;DHT22;8445;51.270;9.434;2022-09-09T14:34:18;24.40;68.60
16663;DHT22;8445;51.270;9.434;2022-09-09T14:36:43;24.40;68.20
16663;DHT22;8445;51.270;9.434;2022-09-09T14:39:10;24.50;68.10
16663;DHT22;8445;51.270;9.434;2022-09-09T14:41:36;24.50;67.80
16663;DHT22;8445;51.270;9.434;2022-09-09T14:44:03;24.50;67.90
16663;DHT22;8445;51.270;9.434;2022-09-09T14:46:29;24.90;68.40
16663;DHT22;8445;51.270;9.434;2022-09-09T14:48:55;25.20;67.80
16663;DHT22;8445;51.270;9.434;2022-09-09T14:51:23;25.20;67.00
16663;DHT22;8445;51.270;9.434;2022-09-09T14:53:55;25.00;66.40
16663;DHT22;8445;51.270;9.434;2022-09-09T14:56:28;24.70;66.30
16663;DHT22;8445;51.270;9.434;2022-09-09T14:58:57;24.40;66.50
16663;DHT22;8445;51.270;9.434;2022-09-09T15:01:27;24.20;66.50
16663;DHT22;8445;51.270;9.434;2022-09-09T15:04:00;23.80;66.30
16663;DHT22;8445;51.270;9.434;2022-09-09T15:06:30;23.60;66.40
16663;DHT22;8445;51.270;9.434;2022-09-09T15:08:59;23.30;66.40
16663;DHT22;8445;51.270;9.434;2022-09-09T15:11:27;23.00;66.60
16663;DHT22;8445;51.270;9.434;2022-09-09T15:13:56;22.90;66.90
16663;DHT22;8445;51.270;9.434;2022-09-09T15:16:25;22.90;67.10
16663;DHT22;8445;51.270;9.434;2022-09-09T15:18:55;22.80;67.00
16663;DHT22;8445;51.270;9.434;2022-09-09T15:21:25;22.80;67.10
16663;DHT22;8445;51.270;9.434;2022-09-09T15:23:53;22.80;67.00
16663;DHT22;8445;51.270;9.434;2022-09-09T15:26:20;22.90;67.30
16663;DHT22;8445;51.270;9.434;2022-09-09T15:28:47;22.90;67.10
16663;DHT22;8445;51.270;9.434;2022-09-09T15:31:27;22.90;66.80
16663;DHT22;8445;51.270;9.434;2022-09-09T15:33:59;22.90;66.60
16663;DHT22;8445;51.270;9.434;2022-09-09T15:36:32;22.80;65.70
16663;DHT22;8445;51.270;9.434;2022-09-09T15:38:59;22.90;66.70
16663;DHT22;8445;51.270;9.434;2022-09-09T15:41:26;22.80;66.50
16663;DHT22;8445;51.270;9.434;2022-09-09T15:43:55;22.70;66.40
16663;DHT22;8445;51.270;9.434;2022-09-09T15:49:10;22.40;66.20
16663;DHT22;8445;51.270;9.434;2022-09-09T15:51:41;22.30;66.30
16663;DHT22;8445;51.270;9.434;2022-09-09T15:54:10;22.20;66.30
16663;DHT22;8445;51.270;9.434;2022-09-09T15:56:37;22.10;66.30
16663;DHT22;8445;51.270;9.434;2022-09-09T15:59:03;22.00;66.30
16663;DHT22;8445;51.270;9.434;2022-09-09T16:01:32;21.80;66.20
16663;DHT22;8445;51.270;9.434;2022-09-09T16:04:12;21.70;66.20
16663;DHT22;8445;51.270;9.434;2022-09-09T16:06:47;21.60;66.20
16663;DHT22;8445;51.270;9.434;2022-09-09T16:09:16;21.50;66.20
16663;DHT22;8445;51.270;9.434;2022-09-09T16:11:42;21.40;66.30
16663;DHT22;8445;51.270;9.434;2022-09-09T16:14:08;21.30;66.30
16663;DHT22;8445;51.270;9.434;2022-09-09T16:16:55;21.20;66.40
16663;DHT22;8445;51.270;9.434;2022-09-09T16:19:23;21.10;66.30
16663;DHT22;8445;51.270;9.434;2022-09-09T16:21:49;21.00;66.30
16663;DHT22;8445;51.270;9.434;2022-09-09T16:24:17;20.90;66.40
16663;DHT22;8445;51.270;9.434;2022-09-09T16:26:48;20.80;66.40
16663;DHT22;8445;51.270;9.434;2022-09-09T16:29:21;20.70;66.50
16663;DHT22;8445;51.270;9.434;2022-09-09T16:31:48;20.60;66.40
16663;DHT22;8445;51.270;9.434;2022-09-09T16:34:16;20.60;66.50
16663;DHT22;8445;51.270;9.434;2022-09-09T16:36:44;20.50;66.60
16663;DHT22;8445;51.270;9.434;2022-09-09T16:39:13;20.40;66.70
16663;DHT22;8445;51.270;9.434;2022-09-09T16:41:46;20.30;66.60
16663;DHT22;8445;51.270;9.434;2022-09-09T16:44:15;20.30;66.70
16663;DHT22;8445;51.270;9.434;2022-09-09T16:46:44;20.20;66.70
16663;DHT22;8445;51.270;9.434;2022-09-09T16:49:21;20.10;66.70
16663;DHT22;8445;51.270;9.434;2022-09-09T16:51:50;20.10;66.70
16663;DHT22;8445;51.270;9.434;2022-09-09T16:54:19;20.00;66.60
16663;DHT22;8445;51.270;9.434;2022-09-09T16:56:47;19.90;66.60
16663;DHT22;8445;51.270;9.434;2022-09-09T16:59:17;19.80;66.60
16663;DHT22;8445;51.270;9.434;2022-09-09T17:01:47;19.70;66.60
16663;DHT22;8445;51.270;9.434;2022-09-09T17:04:17;19.60;66.60
16663;DHT22;8445;51.270;9.434;2022-09-09T17:06:51;19.50;66.60
16663;DHT22;8445;51.270;9.434;2022-09-09T17:09:22;19.30;66.70
16663;DHT22;8445;51.270;9.434;2022-09-09T17:11:55;19.20;66.70
16663;DHT22;8445;51.270;9.434;2022-09-09T17:14:26;19.10;66.80
16663;DHT22;8445;51.270;9.434;2022-09-09T17:16:52;18.90;66.80
16663;DHT22;8445;51.270;9.434;2022-09-09T17:19:18;18.80;66.90
16663;DHT22;8445;51.270;9.434;2022-09-09T17:21:47;18.70;67.00
16663;DHT22;8445;51.270;9.434;2022-09-09T17:24:19;18.60;67.10
16663;DHT22;8445;51.270;9.434;2022-09-09T17:26:45;18.50;67.20
16663;DHT22;8445;51.270;9.434;2022-09-09T17:29:10;18.50;67.30
16663;DHT22;8445;51.270;9.434;2022-09-09T17:35:11;18.40;67.50
16663;DHT22;8445;51.270;9.434;2022-09-09T17:40:42;18.40;67.80
16663;DHT22;8445;51.270;9.434;2022-09-09T17:43:28;18.40;67.80
16663;DHT22;8445;51.270;9.434;2022-09-09T17:49:04;18.30;67.90
16663;DHT22;8445;51.270;9.434;2022-09-09T17:52:03;18.30;67.90
16663;DHT22;8445;51.270;9.434;2022-09-09T17:54:38;18.30;68.10
16663;DHT22;8445;51.270;9.434;2022-09-09T17:57:07;18.30;68.00
16663;DHT22;8445;51.270;9.434;2022-09-09T17:59:33;18.20;67.90
16663;DHT22;8445;51.270;9.434;2022-09-09T18:01:59;18.10;67.90
16663;DHT22;8445;51.270;9.434;2022-09-09T18:04:24;18.10;68.10
16663;DHT22;8445;51.270;9.434;2022-09-09T18:06:52;18.10;68.10
16663;DHT22;8445;51.270;9.434;2022-09-09T18:09:21;18.00;68.10
16663;DHT22;8445;51.270;9.434;2022-09-09T18:11:50;17.90;68.10
16663;DHT22;8445;51.270;9.434;2022-09-09T18:14:21;17.90;68.20
16663;DHT22;8445;51.270;9.434;2022-09-09T18:16:52;17.80;68.30
16663;DHT22;8445;51.270;9.434;2022-09-09T18:19:21;17.80;68.30
16663;DHT22;8445;51.270;9.434;2022-09-09T18:21:50;17.70;68.40
16663;DHT22;8445;51.270;9.434;2022-09-09T18:24:18;17.70;68.50
16663;DHT22;8445;51.270;9.434;2022-09-09T18:26:47;17.60;68.50
16663;DHT22;8445;51.270;9.434;2022-09-09T18:29:20;17.60;68.50
16663;DHT22;8445;51.270;9.434;2022-09-09T18:31:50;17.50;68.60
16663;DHT22;8445;51.270;9.434;2022-09-09T18:34:20;17.40;68.50
16663;DHT22;8445;51.270;9.434;2022-09-09T18:36:49;17.40;68.60
16663;DHT22;8445;51.270;9.434;2022-09-09T18:39:21;17.30;68.70
16663;DHT22;8445;51.270;9.434;2022-09-09T18:41:58;17.30;68.80
16663;DHT22;8445;51.270;9.434;2022-09-09T18:44:47;17.10;68.80
16663;DHT22;8445;51.270;9.434;2022-09-09T18:47:13;17.10;68.80